createdAt,value
2023-05-20T00:00:48.564Z,99854.38
2023-05-20T00:03:16.341Z,99846.41
2023-05-20T00:05:43.257Z,99846.44
2023-05-20T00:08:11.170Z,99844.78
2023-05-20T00:10:38.491Z,99849.84
2023-05-20T00:13:06.608Z,99841.84
2023-05-20T00:15:34.566Z,99832.53
2023-05-20T00:18:02.448Z,99825.53
2023-05-20T00:20:29.005Z,99819.59
2023-05-20T00:22:55.610Z,99822.03
2023-05-20T00:25:22.257Z,99818.53
2023-05-20T00:27:48.822Z,99811.75
2023-05-20T00:30:15.549Z,99813.34
2023-05-20T00:32:42.125Z,99805.69
2023-05-20T00:35:09.378Z,99801.22
2023-05-20T00:37:35.968Z,99795.34
2023-05-20T00:40:03.242Z,99799.50
2023-05-20T00:42:29.865Z,99786.59
2023-05-20T00:44:56.793Z,99783.09
2023-05-20T00:47:32.700Z,99779.81
2023-05-20T00:50:00.699Z,99776.31
2023-05-20T00:52:31.414Z,99776.03
2023-05-20T00:54:59.870Z,99767.44
2023-05-20T00:57:26.614Z,99764.91
2023-05-20T00:59:53.877Z,99757.16
2023-05-20T01:02:20.931Z,99757.16
2023-05-20T01:04:47.742Z,99751.16
2023-05-20T01:07:17.359Z,99753.66
2023-05-20T01:09:44.495Z,99741.44
2023-05-20T01:12:38.289Z,99732.09
2023-05-20T01:15:13.275Z,99726.88
2023-05-20T01:17:45.037Z,99721.88
2023-05-20T01:20:13.417Z,99730.59
2023-05-20T01:22:53.637Z,99727.81
2023-05-20T01:25:20.369Z,99720.94
2023-05-20T01:27:50.448Z,99713.13
2023-05-20T01:30:17.559Z,99715.59
2023-05-20T01:32:54.030Z,99710.66
2023-05-20T01:35:22.552Z,99702.84
2023-05-20T01:37:50.907Z,99696.81
2023-05-20T01:40:18.576Z,99694.22
2023-05-20T01:42:46.649Z,99685.56
2023-05-20T01:45:13.438Z,99676.97
2023-05-20T01:47:40.857Z,99679.69
2023-05-20T01:50:08.824Z,99679.78
2023-05-20T01:52:35.448Z,99684.03
2023-05-20T01:55:02.087Z,99674.78
2023-05-20T01:57:28.794Z,99680.69
2023-05-20T01:59:55.493Z,99682.41
2023-05-20T02:02:22.303Z,99674.66
2023-05-20T02:04:50.596Z,99676.31
2023-05-20T02:07:21.078Z,99671.31
2023-05-20T02:09:47.844Z,99674.84
2023-05-20T02:12:17.641Z,99684.28
2023-05-20T02:14:46.052Z,99680.00
2023-05-20T02:17:16.318Z,99677.50
2023-05-20T02:19:43.842Z,99671.44
2023-05-20T02:22:10.518Z,99666.41
2023-05-20T02:24:37.120Z,99664.53
2023-05-20T02:27:04.808Z,99664.59
2023-05-20T02:29:31.392Z,99657.53
2023-05-20T02:31:58.370Z,99645.38
2023-05-20T02:34:26.413Z,99627.44
2023-05-20T02:36:53.442Z,99621.47
2023-05-20T02:39:20.104Z,99617.28
2023-05-20T02:41:46.653Z,99623.19
2023-05-20T02:44:13.303Z,99609.47
2023-05-20T02:46:40.225Z,99603.41
2023-05-20T02:49:07.175Z,99598.16
2023-05-20T02:51:33.782Z,99594.00
2023-05-20T02:54:00.412Z,99596.50
2023-05-20T02:56:27.154Z,99590.44
2023-05-20T02:58:53.784Z,99579.31
2023-05-20T03:01:20.444Z,99577.66
2023-05-20T03:03:47.064Z,99569.94
2023-05-20T03:06:13.722Z,99569.94
2023-05-20T03:08:42.923Z,99574.22
2023-05-20T03:11:09.568Z,99558.09
2023-05-20T03:13:36.250Z,99569.19
2023-05-20T03:16:03.156Z,99559.69
2023-05-20T03:18:29.860Z,99546.84
2023-05-20T03:20:56.467Z,99543.50
2023-05-20T03:23:23.172Z,99540.94
2023-05-20T03:25:49.765Z,99543.34
2023-05-20T03:28:16.345Z,99528.84
2023-05-20T03:30:43.523Z,99528.75
2023-05-20T03:33:10.694Z,99528.78
2023-05-20T03:35:37.646Z,99508.13
2023-05-20T03:38:04.519Z,99503.00
2023-05-20T03:40:31.253Z,99500.53
2023-05-20T03:42:57.849Z,99505.03
2023-05-20T03:45:24.607Z,99507.44
2023-05-20T03:47:51.904Z,99496.31
2023-05-20T03:50:18.542Z,99489.28
2023-05-20T03:52:45.429Z,99472.06
2023-05-20T03:55:11.996Z,99462.56
2023-05-20T03:57:38.578Z,99455.69
2023-05-20T04:00:11.923Z,99449.66
2023-05-20T04:02:38.891Z,99436.75
2023-05-20T04:05:08.669Z,99429.09
2023-05-20T04:07:35.927Z,99428.28
2023-05-20T04:10:03.757Z,99430.72
2023-05-20T04:12:32.208Z,99423.13
2023-05-20T04:15:01.435Z,99429.13
2023-05-20T04:17:32.287Z,99430.97
2023-05-20T04:20:02.004Z,99430.78
2023-05-20T04:22:28.603Z,99421.19
2023-05-20T04:24:56.578Z,99416.09
2023-05-20T04:27:23.791Z,99417.00
2023-05-20T04:29:50.389Z,99402.44
2023-05-20T04:32:19.162Z,99410.16
2023-05-20T04:34:46.647Z,99408.47
2023-05-20T04:37:13.980Z,99403.25
2023-05-20T04:39:40.660Z,99408.38
2023-05-20T04:42:07.315Z,99405.09
2023-05-20T04:44:34.488Z,99408.34
2023-05-20T04:47:01.229Z,99396.47
2023-05-20T04:49:29.928Z,99397.34
2023-05-20T04:51:56.647Z,99393.00
2023-05-20T04:54:23.449Z,99391.34
2023-05-20T04:56:51.047Z,99396.66
2023-05-20T04:59:18.683Z,99399.09
2023-05-20T05:01:45.314Z,99401.72
2023-05-20T05:04:11.969Z,99406.00
2023-05-20T05:06:38.665Z,99400.91
2023-05-20T05:09:05.464Z,99400.97
2023-05-20T05:11:32.013Z,99406.94
2023-05-20T05:13:58.646Z,99395.66
2023-05-20T05:16:25.561Z,99385.28
2023-05-20T05:18:52.277Z,99392.31
2023-05-20T05:21:18.931Z,99384.59
2023-05-20T05:23:45.673Z,99383.69
2023-05-20T05:26:12.561Z,99381.97
2023-05-20T05:28:39.114Z,99369.13
2023-05-20T05:31:06.901Z,99360.75
2023-05-20T05:33:33.589Z,99373.78
2023-05-20T05:36:01.811Z,99383.16
2023-05-20T05:38:28.425Z,99389.22
2023-05-20T05:40:55.051Z,99393.44
2023-05-20T05:43:21.659Z,99384.03
2023-05-20T05:45:48.268Z,99373.53
2023-05-20T05:48:14.918Z,99373.81
2023-05-20T05:50:45.546Z,99380.03
2023-05-20T05:53:12.776Z,99390.31
2023-05-20T05:55:39.492Z,99390.28
2023-05-20T05:58:06.101Z,99382.44
2023-05-20T06:00:32.707Z,99392.94
2023-05-20T06:02:59.376Z,99391.25
2023-05-20T06:05:28.884Z,99402.31
2023-05-20T06:07:56.165Z,99406.66
2023-05-20T06:10:22.950Z,99404.09
2023-05-20T06:12:49.686Z,99400.59
2023-05-20T06:15:16.756Z,99398.91
2023-05-20T06:17:43.445Z,99396.50
2023-05-20T06:20:10.534Z,99401.84
2023-05-20T06:22:37.163Z,99419.00
2023-05-20T06:25:04.030Z,99424.97
2023-05-20T06:27:30.644Z,99422.31
2023-05-20T06:29:57.198Z,99412.69
2023-05-20T06:32:24.264Z,99400.81
2023-05-20T06:34:50.992Z,99413.75
2023-05-20T06:37:17.610Z,99417.97
2023-05-20T06:39:44.901Z,99409.56
2023-05-20T06:42:11.515Z,99413.91
2023-05-20T06:44:38.102Z,99415.63
2023-05-20T06:47:04.926Z,99414.81
2023-05-20T06:49:31.478Z,99434.00
2023-05-20T06:51:58.065Z,99452.75
2023-05-20T06:54:25.545Z,99451.75
2023-05-20T06:56:52.100Z,99452.72
2023-05-20T06:59:18.704Z,99464.00
2023-05-20T07:01:45.388Z,99462.19
2023-05-20T07:04:12.191Z,99470.13
2023-05-20T07:06:38.976Z,99481.25
2023-05-20T07:09:05.614Z,99491.75
2023-05-20T07:11:32.247Z,99497.78
2023-05-20T07:13:58.829Z,99496.91
2023-05-20T07:16:26.319Z,99503.09
2023-05-20T07:18:52.958Z,99521.91
2023-05-20T07:21:19.675Z,99529.59
2023-05-20T07:23:46.336Z,99540.78
2023-05-20T07:26:12.981Z,99546.84
2023-05-20T07:28:39.612Z,99562.72
2023-05-20T07:31:06.172Z,99572.91
2023-05-20T07:33:32.946Z,99590.13
2023-05-20T07:35:59.606Z,99593.53
2023-05-20T07:38:26.468Z,99602.19
2023-05-20T07:40:53.134Z,99608.31
2023-05-20T07:43:20.150Z,99612.47
2023-05-20T07:45:46.849Z,99619.25
2023-05-20T07:48:13.513Z,99621.03
2023-05-20T07:50:40.135Z,99616.88
2023-05-20T07:53:07.138Z,99624.78
2023-05-20T07:55:35.034Z,99644.53
2023-05-20T07:58:01.952Z,99650.09
2023-05-20T08:00:29.024Z,99655.44
2023-05-20T08:02:56.082Z,99666.84
2023-05-20T08:05:23.068Z,99674.25
2023-05-20T08:07:49.634Z,99674.41
2023-05-20T08:10:16.244Z,99687.84
2023-05-20T08:12:42.883Z,99687.22
2023-05-20T08:15:09.737Z,99672.84
2023-05-20T08:17:36.360Z,99684.72
2023-05-20T08:20:03.057Z,99687.28
2023-05-20T08:22:30.131Z,99679.53
2023-05-20T08:24:56.904Z,99677.31
2023-05-20T08:27:23.620Z,99681.63
2023-05-20T08:29:50.253Z,99680.59
2023-05-20T08:32:16.911Z,99685.06
2023-05-20T08:34:43.510Z,99676.63
2023-05-20T08:37:10.095Z,99674.19
2023-05-20T08:39:36.660Z,99685.28
2023-05-20T08:42:03.923Z,99680.81
2023-05-20T08:44:31.432Z,99672.34
2023-05-20T08:46:58.388Z,99666.56
2023-05-20T08:49:25.117Z,99667.59
2023-05-20T08:51:51.757Z,99671.91
2023-05-20T08:54:21.543Z,99669.16
2023-05-20T08:56:48.257Z,99673.69
2023-05-20T08:59:15.412Z,99673.47
2023-05-20T09:01:45.616Z,99678.72
2023-05-20T09:04:12.671Z,99674.34
2023-05-20T09:06:47.187Z,99674.69
2023-05-20T09:09:14.763Z,99672.97
2023-05-20T09:11:42.375Z,99675.44
2023-05-20T09:14:09.441Z,99664.22
2023-05-20T09:16:36.193Z,99664.34
2023-05-20T09:19:06.470Z,99672.06
2023-05-20T09:21:35.348Z,99657.38
2023-05-20T09:24:02.734Z,99658.34
2023-05-20T09:26:30.208Z,99654.94
2023-05-20T09:28:57.988Z,99666.19
2023-05-20T09:31:29.407Z,99671.28
2023-05-20T09:33:56.575Z,99671.19
2023-05-20T09:36:25.851Z,99660.19
2023-05-20T09:38:53.651Z,99656.75
2023-05-20T09:41:23.673Z,99664.50
2023-05-20T09:43:52.959Z,99658.56
2023-05-20T09:46:20.445Z,99649.16
2023-05-20T09:48:47.322Z,99642.28
2023-05-20T09:51:14.769Z,99648.34
2023-05-20T09:53:41.679Z,99647.41
2023-05-20T09:56:08.344Z,99647.47
2023-05-20T09:58:36.951Z,99644.00
2023-05-20T10:01:03.703Z,99644.00
2023-05-20T10:03:30.704Z,99637.09
2023-05-20T10:06:00.057Z,99639.72
2023-05-20T10:08:45.017Z,99631.13
2023-05-20T10:11:40.910Z,99626.81
2023-05-20T10:14:25.828Z,99623.34
2023-05-20T10:17:10.144Z,99626.81
2023-05-20T10:19:37.707Z,99621.66
2023-05-20T10:22:09.419Z,99624.22
2023-05-20T10:24:40.830Z,99617.31
2023-05-20T10:27:15.012Z,99615.59
2023-05-20T10:29:59.778Z,99623.34
2023-05-20T10:32:36.728Z,99619.03
2023-05-20T10:35:10.177Z,99625.91
2023-05-20T10:37:45.084Z,99630.25
2023-05-20T10:40:16.287Z,99624.22
2023-05-20T10:42:43.261Z,99630.19
2023-05-20T10:45:10.796Z,99627.59
2023-05-20T10:47:42.309Z,99622.34
2023-05-20T10:50:26.560Z,99624.91
2023-05-20T10:52:53.351Z,99614.50
2023-05-20T10:55:22.444Z,99617.16
2023-05-20T10:57:49.044Z,99615.28
2023-05-20T11:00:16.357Z,99609.94
2023-05-20T11:02:43.154Z,99614.25
2023-05-20T11:05:12.794Z,99616.88
2023-05-20T11:07:40.238Z,99611.81
2023-05-20T11:10:10.362Z,99606.63
2023-05-20T11:12:37.146Z,99611.72
2023-05-20T11:15:03.916Z,99600.13
2023-05-20T11:17:30.573Z,99606.16
2023-05-20T11:20:00.929Z,99602.22
2023-05-20T11:22:27.581Z,99595.84
2023-05-20T11:24:54.203Z,99601.16
2023-05-20T11:27:20.762Z,99599.56
2023-05-20T11:29:50.496Z,99592.41
2023-05-20T11:32:20.235Z,99586.38
2023-05-20T11:34:51.937Z,99594.84
2023-05-20T11:37:20.264Z,99585.28
2023-05-20T11:39:47.110Z,99588.75
2023-05-20T11:42:16.142Z,99581.50
2023-05-20T11:44:46.464Z,99576.47
2023-05-20T11:47:13.302Z,99578.28
2023-05-20T11:49:40.850Z,99575.81
2023-05-20T11:52:09.765Z,99579.88
2023-05-20T11:54:36.555Z,99570.31
2023-05-20T11:57:07.182Z,99576.22
2023-05-20T11:59:34.060Z,99570.38
2023-05-20T12:02:00.880Z,99571.19
2023-05-20T12:04:27.725Z,99558.66
2023-05-20T12:06:55.792Z,99562.34
2023-05-20T12:09:22.554Z,99568.06
2023-05-20T12:11:49.407Z,99560.81
2023-05-20T12:14:15.985Z,99558.91
2023-05-20T12:16:43.020Z,99555.94
2023-05-20T12:19:09.741Z,99560.97
2023-05-20T12:21:36.541Z,99552.59
2023-05-20T12:24:05.368Z,99541.78
2023-05-20T12:26:32.229Z,99544.47
2023-05-20T12:28:58.879Z,99541.72
2023-05-20T12:31:25.835Z,99535.38
2023-05-20T12:33:52.596Z,99552.63
2023-05-20T12:36:19.835Z,99540.78
2023-05-20T12:38:46.947Z,99537.63
2023-05-20T12:41:14.413Z,99541.34
2023-05-20T12:43:41.001Z,99535.31
2023-05-20T12:46:07.837Z,99539.47
2023-05-20T12:48:34.452Z,99534.75
2023-05-20T12:51:01.475Z,99539.38
2023-05-20T12:53:28.043Z,99535.91
2023-05-20T12:55:54.696Z,99539.06
2023-05-20T12:58:21.377Z,99538.75
2023-05-20T13:00:48.025Z,99541.59
2023-05-20T13:03:15.272Z,99543.00
2023-05-20T13:05:42.164Z,99543.00
2023-05-20T13:08:10.241Z,99533.50
2023-05-20T13:10:37.178Z,99537.38
2023-05-20T13:13:04.210Z,99539.66
2023-05-20T13:15:33.249Z,99540.75
2023-05-20T13:18:01.556Z,99534.56
2023-05-20T13:20:28.967Z,99536.59
2023-05-20T13:22:55.557Z,99538.81
2023-05-20T13:25:22.160Z,99537.41
2023-05-20T13:27:48.732Z,99534.44
2023-05-20T13:30:15.398Z,99537.22
2023-05-20T13:32:42.040Z,99547.72
2023-05-20T13:35:08.863Z,99552.28
2023-05-20T13:37:35.437Z,99547.13
2023-05-20T13:40:02.078Z,99541.09
2023-05-20T13:42:28.663Z,99533.88
2023-05-20T13:44:55.234Z,99528.06
2023-05-20T13:47:21.854Z,99524.19
2023-05-20T13:49:49.591Z,99527.44
2023-05-20T13:52:16.217Z,99534.63
2023-05-20T13:54:44.691Z,99527.53
2023-05-20T13:57:11.344Z,99520.47
2023-05-20T13:59:38.647Z,99518.91
2023-05-20T14:02:05.757Z,99521.34
2023-05-20T14:04:36.914Z,99517.75
2023-05-20T14:07:06.154Z,99517.94
2023-05-20T14:09:34.170Z,99513.69
2023-05-20T14:12:00.995Z,99506.78
2023-05-20T14:14:27.718Z,99506.38
2023-05-20T14:16:54.387Z,99512.19
2023-05-20T14:19:21.117Z,99494.97
2023-05-20T14:21:47.693Z,99494.69
2023-05-20T14:24:14.281Z,99500.28
2023-05-20T14:26:40.869Z,99488.16
2023-05-20T14:29:07.545Z,99487.53
2023-05-20T14:31:34.221Z,99490.28
2023-05-20T14:34:00.843Z,99495.47
2023-05-20T14:36:27.449Z,99490.13
2023-05-20T14:38:54.165Z,99492.97
2023-05-20T14:41:22.350Z,99513.19
2023-05-20T14:43:48.977Z,99495.94
2023-05-20T14:46:15.757Z,99502.47
2023-05-20T14:48:42.322Z,99499.91
2023-05-20T14:51:09.003Z,99506.97
2023-05-20T14:53:35.735Z,99497.72
2023-05-20T14:56:02.402Z,99498.97
2023-05-20T14:58:28.979Z,99496.69
2023-05-20T15:00:56.042Z,99492.34
2023-05-20T15:03:27.912Z,99486.78
2023-05-20T15:05:54.707Z,99494.44
2023-05-20T15:08:22.201Z,99487.00
2023-05-20T15:10:48.974Z,99489.03
2023-05-20T15:13:15.527Z,99495.56
2023-05-20T15:15:42.170Z,99489.97
2023-05-20T15:18:08.753Z,99487.16
2023-05-20T15:20:35.374Z,99485.41
2023-05-20T15:23:01.932Z,99505.47
2023-05-20T15:25:28.500Z,99489.09
2023-05-20T15:27:55.177Z,99498.59
2023-05-20T15:30:23.067Z,99487.94
2023-05-20T15:32:50.052Z,99484.22
2023-05-20T15:35:16.889Z,99486.09
2023-05-20T15:37:43.458Z,99491.19
2023-05-20T15:40:10.598Z,99487.25
2023-05-20T15:42:37.173Z,99486.66
2023-05-20T15:45:03.942Z,99491.03
2023-05-20T15:47:30.670Z,99487.50
2023-05-20T15:49:57.942Z,99496.56
2023-05-20T15:52:24.911Z,99496.66
2023-05-20T15:54:51.536Z,99487.13
2023-05-20T15:57:18.169Z,99499.00
2023-05-20T15:59:44.741Z,99492.47
2023-05-20T16:02:11.423Z,99500.03
2023-05-20T16:04:38.071Z,99503.84
2023-05-20T16:07:04.916Z,99505.78
2023-05-20T16:09:31.458Z,99504.94
2023-05-20T16:11:58.093Z,99517.56
2023-05-20T16:14:24.737Z,99504.38
2023-05-20T16:16:51.370Z,99516.56
2023-05-20T16:19:18.077Z,99506.75
2023-05-20T16:21:44.804Z,99508.69
2023-05-20T16:24:11.388Z,99508.75
2023-05-20T16:26:38.135Z,99508.97
2023-05-20T16:29:04.718Z,99510.38
2023-05-20T16:31:31.293Z,99504.69
2023-05-20T16:33:58.551Z,99511.81
2023-05-20T16:36:26.080Z,99507.03
2023-05-20T16:38:52.716Z,99526.25
2023-05-20T16:41:19.340Z,99509.88
2023-05-20T16:43:45.960Z,99513.47
2023-05-20T16:46:14.627Z,99520.28
2023-05-20T16:48:42.928Z,99520.41
2023-05-20T16:51:09.485Z,99521.34
2023-05-20T16:53:36.412Z,99516.00
2023-05-20T16:56:03.917Z,99517.88
2023-05-20T16:58:31.155Z,99521.53
2023-05-20T17:00:58.089Z,99531.78
2023-05-20T17:03:24.669Z,99525.13
2023-05-20T17:05:51.283Z,99519.13
2023-05-20T17:08:18.313Z,99530.34
2023-05-20T17:10:45.202Z,99531.09
2023-05-20T17:13:11.808Z,99524.28
2023-05-20T17:15:38.576Z,99528.75
2023-05-20T17:18:05.350Z,99531.31
2023-05-20T17:20:32.779Z,99527.69
2023-05-20T17:22:59.930Z,99528.66
2023-05-20T17:25:26.618Z,99529.56
2023-05-20T17:27:53.243Z,99525.38
2023-05-20T17:30:20.048Z,99526.25
2023-05-20T17:32:46.796Z,99529.66
2023-05-20T17:35:13.464Z,99533.19
2023-05-20T17:37:40.055Z,99520.13
2023-05-20T17:40:07.184Z,99521.88
2023-05-20T17:42:34.058Z,99524.44
2023-05-20T17:45:00.823Z,99515.84
2023-05-20T17:47:27.751Z,99526.28
2023-05-20T17:49:54.346Z,99536.63
2023-05-20T17:52:21.032Z,99535.88
2023-05-20T17:54:47.633Z,99541.06
2023-05-20T17:57:14.270Z,99544.56
2023-05-20T17:59:42.011Z,99545.34
2023-05-20T18:02:08.871Z,99554.00
2023-05-20T18:04:36.018Z,99553.97
2023-05-20T18:07:04.102Z,99560.03
2023-05-20T18:09:30.728Z,99564.47
2023-05-20T18:11:57.351Z,99566.97
2023-05-20T18:14:24.012Z,99567.88
2023-05-20T18:16:50.712Z,99567.03
2023-05-20T18:19:17.305Z,99574.00
2023-05-20T18:21:44.139Z,99571.38
2023-05-20T18:24:11.615Z,99581.78
2023-05-20T18:26:38.336Z,99572.22
2023-05-20T18:29:05.242Z,99574.84
2023-05-20T18:31:31.865Z,99583.50
2023-05-20T18:33:58.474Z,99580.06
2023-05-20T18:36:27.420Z,99579.16
2023-05-20T18:38:53.980Z,99578.31
2023-05-20T18:41:22.305Z,99580.91
2023-05-20T18:43:50.245Z,99579.19
2023-05-20T18:46:17.286Z,99575.72
2023-05-20T18:48:44.004Z,99583.50
2023-05-20T18:51:10.559Z,99578.34
2023-05-20T18:53:37.128Z,99582.72
2023-05-20T18:56:04.479Z,99588.72
2023-05-20T18:58:31.785Z,99588.72
2023-05-20T19:00:58.391Z,99585.31
2023-05-20T19:03:25.404Z,99593.97
2023-05-20T19:05:52.226Z,99592.22
2023-05-20T19:08:18.894Z,99593.91
2023-05-20T19:10:45.549Z,99589.63
2023-05-20T19:13:12.306Z,99592.22
2023-05-20T19:15:38.955Z,99593.94
2023-05-20T19:18:06.073Z,99598.28
2023-05-20T19:20:34.413Z,99595.75
2023-05-20T19:23:01.139Z,99594.84
2023-05-20T19:25:27.937Z,99587.94
2023-05-20T19:27:54.821Z,99590.56
2023-05-20T19:30:21.437Z,99597.44
2023-05-20T19:32:48.245Z,99593.13
2023-05-20T19:35:15.000Z,99592.25
2023-05-20T19:37:41.703Z,99592.28
2023-05-20T19:40:09.357Z,99589.69
2023-05-20T19:42:36.253Z,99593.13
2023-05-20T19:45:02.918Z,99590.56
2023-05-20T19:47:29.586Z,99599.19
2023-05-20T19:49:56.368Z,99606.09
2023-05-20T19:52:22.958Z,99606.97
2023-05-20T19:54:49.579Z,99606.09
2023-05-20T19:57:16.341Z,99599.19
2023-05-20T19:59:42.964Z,99603.53
2023-05-20T20:02:10.471Z,99609.53
2023-05-20T20:04:37.949Z,99609.56
2023-05-20T20:07:04.734Z,99610.44
2023-05-20T20:09:31.424Z,99612.16
2023-05-20T20:11:58.057Z,99613.88
2023-05-20T20:14:24.648Z,99618.19
2023-05-20T20:16:51.209Z,99618.19
2023-05-20T20:19:26.174Z,99615.59
2023-05-20T20:21:53.647Z,99619.91
2023-05-20T20:24:20.389Z,99613.88
2023-05-20T20:26:47.703Z,99618.19
2023-05-20T20:29:14.974Z,99613.00
2023-05-20T20:31:42.020Z,99622.50
2023-05-20T20:34:08.896Z,99624.22
2023-05-20T20:36:35.479Z,99616.47
2023-05-20T20:39:04.767Z,99624.22
2023-05-20T20:41:32.287Z,99627.66
2023-05-20T20:43:59.821Z,99626.81
2023-05-20T20:46:27.721Z,99625.94
2023-05-20T20:48:54.454Z,99631.09
2023-05-20T20:51:21.241Z,99628.50
2023-05-20T20:53:48.738Z,99628.50
2023-05-20T20:56:15.930Z,99627.63
2023-05-20T20:58:44.984Z,99630.22
2023-05-20T21:01:12.395Z,99626.78
2023-05-20T21:03:40.243Z,99634.53
2023-05-20T21:06:08.048Z,99629.34
2023-05-20T21:08:34.931Z,99626.78
2023-05-20T21:11:01.604Z,99625.00
2023-05-20T21:13:29.873Z,99629.28
2023-05-20T21:15:56.526Z,99624.19
2023-05-20T21:18:24.085Z,99625.03
2023-05-20T21:20:52.674Z,99623.22
2023-05-20T21:23:23.200Z,99620.59
2023-05-20T21:25:50.214Z,99617.16
2023-05-20T21:28:16.863Z,99622.34
2023-05-20T21:30:44.986Z,99624.06
2023-05-20T21:33:11.734Z,99621.47
2023-05-20T21:35:38.473Z,99621.44
2023-05-20T21:38:05.199Z,99616.22
2023-05-20T21:40:31.831Z,99622.25
2023-05-20T21:42:58.375Z,99624.84
2023-05-20T21:45:24.991Z,99627.47
2023-05-20T21:47:51.670Z,99631.66
2023-05-20T21:50:18.250Z,99627.34
2023-05-20T21:52:45.050Z,99627.34
2023-05-20T21:55:11.743Z,99620.41
2023-05-20T21:57:38.351Z,99621.25
2023-05-20T22:00:10.385Z,99620.44
2023-05-20T22:02:37.741Z,99610.97
2023-05-20T22:05:05.172Z,99614.38
2023-05-20T22:07:33.079Z,99609.19
2023-05-20T22:10:00.718Z,99610.97
2023-05-20T22:12:27.752Z,99603.22
2023-05-20T22:14:54.383Z,99609.22
2023-05-20T22:17:21.835Z,99608.38
2023-05-20T22:19:48.510Z,99606.69
2023-05-20T22:22:15.174Z,99602.28
2023-05-20T22:24:41.773Z,99606.63
2023-05-20T22:27:08.318Z,99603.16
2023-05-20T22:29:35.263Z,99600.50
2023-05-20T22:32:01.989Z,99599.59
2023-05-20T22:34:28.714Z,99603.72
2023-05-20T22:36:55.250Z,99591.72
2023-05-20T22:39:21.865Z,99600.34
2023-05-20T22:41:49.021Z,99594.28
2023-05-20T22:44:15.844Z,99582.28
2023-05-20T22:46:42.509Z,99585.81
2023-05-20T22:49:10.360Z,99581.31
2023-05-20T22:51:38.649Z,99576.97
2023-05-20T22:54:07.068Z,99569.19
2023-05-20T22:56:34.329Z,99568.31
2023-05-20T22:59:01.379Z,99564.09
2023-05-20T23:01:28.203Z,99565.81
2023-05-20T23:03:55.147Z,99563.25
2023-05-20T23:06:22.619Z,99561.56
2023-05-20T23:08:50.104Z,99558.97
2023-05-20T23:11:16.768Z,99560.59
2023-05-20T23:13:43.459Z,99563.28
2023-05-20T23:16:10.323Z,99564.91
2023-05-20T23:18:37.218Z,99552.91
2023-05-20T23:21:04.262Z,99550.34
2023-05-20T23:23:32.049Z,99545.06
2023-05-20T23:25:59.367Z,99545.97
2023-05-20T23:28:26.163Z,99544.28
2023-05-20T23:30:52.835Z,99538.31
2023-05-20T23:33:24.818Z,99539.19
2023-05-20T23:35:52.396Z,99541.78
2023-05-20T23:38:19.132Z,99533.16
2023-05-20T23:40:45.781Z,99537.50
2023-05-20T23:43:12.365Z,99534.78
2023-05-20T23:45:38.981Z,99527.91
2023-05-20T23:48:07.124Z,99520.19
2023-05-20T23:50:33.876Z,99519.34
2023-05-20T23:53:00.497Z,99519.25
2023-05-20T23:55:28.485Z,99521.78
2023-05-20T23:57:55.448Z,99502.91
